sensor_id;sensor_type;location;lat;lon;timestamp;temperature;humidity
49821;DHT22;36893;52.520;13.450;2024-03-02T00:02:47;21.40;69.00
49821;DHT22;36893;52.520;13.450;2024-03-02T00:12:48;21.30;68.90
49821;DHT22;36893;52.520;13.450;2024-03-02T00:22:50;21.40;69.00
49821;DHT22;36893;52.520;13.450;2024-03-02T00:32:50;21.30;68.90
49821;DHT22;36893;52.520;13.450;2024-03-02T00:42:53;21.30;68.90
49821;DHT22;36893;52.520;13.450;2024-03-02T00:52:54;21.30;68.90
49821;DHT22;36893;52.520;13.450;2024-03-02T01:02:54;21.40;69.00
49821;DHT22;36893;52.520;13.450;2024-03-02T01:12:55;21.40;69.00
49821;DHT22;36893;52.520;13.450;2024-03-02T01:22:56;21.30;68.90
49821;DHT22;36893;52.520;13.450;2024-03-02T01:32:56;21.30;68.90
49821;DHT22;36893;52.520;13.450;2024-03-02T01:42:59;21.30;68.90
49821;DHT22;36893;52.520;13.450;2024-03-02T01:53:00;21.30;68.90
49821;DHT22;36893;52.520;13.450;2024-03-02T02:03:01;21.30;68.90
49821;DHT22;36893;52.520;13.450;2024-03-02T02:13:02;21.30;68.90
49821;DHT22;36893;52.520;13.450;2024-03-02T02:23:04;21.40;69.00
49821;DHT22;36893;52.520;13.450;2024-03-02T02:33:05;21.30;68.90
49821;DHT22;36893;52.520;13.450;2024-03-02T02:43:06;21.30;68.90
49821;DHT22;36893;52.520;13.450;2024-03-02T02:53:07;21.30;68.90
49821;DHT22;36893;52.520;13.450;2024-03-02T03:03:10;21.30;68.90
49821;DHT22;36893;52.520;13.450;2024-03-02T03:13:10;21.30;68.90
49821;DHT22;36893;52.520;13.450;2024-03-02T03:23:11;21.30;68.90
49821;DHT22;36893;52.520;13.450;2024-03-02T03:33:15;21.30;68.90
49821;DHT22;36893;52.520;13.450;2024-03-02T03:43:16;21.30;68.90
49821;DHT22;36893;52.520;13.450;2024-03-02T03:53:16;21.30;68.90
49821;DHT22;36893;52.520;13.450;2024-03-02T04:03:17;21.30;68.90
49821;DHT22;36893;52.520;13.450;2024-03-02T04:13:18;21.30;69.00
49821;DHT22;36893;52.520;13.450;2024-03-02T04:23:18;21.30;68.90
49821;DHT22;36893;52.520;13.450;2024-03-02T04:33:19;21.30;68.90
49821;DHT22;36893;52.520;13.450;2024-03-02T04:43:19;21.30;68.90
49821;DHT22;36893;52.520;13.450;2024-03-02T04:53:20;21.30;69.00
49821;DHT22;36893;52.520;13.450;2024-03-02T05:03:21;21.30;68.90
49821;DHT22;36893;52.520;13.450;2024-03-02T05:13:21;21.30;69.00
49821;DHT22;36893;52.520;13.450;2024-03-02T05:23:22;21.30;69.00
49821;DHT22;36893;52.520;13.450;2024-03-02T05:33:22;21.30;69.00
49821;DHT22;36893;52.520;13.450;2024-03-02T05:43:23;21.30;69.00
49821;DHT22;36893;52.520;13.450;2024-03-02T05:53:24;21.30;68.90
49821;DHT22;36893;52.520;13.450;2024-03-02T06:03:24;21.30;69.00
49821;DHT22;36893;52.520;13.450;2024-03-02T06:13:25;21.30;69.00
49821;DHT22;36893;52.520;13.450;2024-03-02T06:23:27;21.30;69.00
49821;DHT22;36893;52.520;13.450;2024-03-02T06:33:27;21.30;69.00
49821;DHT22;36893;52.520;13.450;2024-03-02T06:43:28;21.40;69.10
49821;DHT22;36893;52.520;13.450;2024-03-02T06:53:29;21.40;69.00
49821;DHT22;36893;52.520;13.450;2024-03-02T07:03:30;21.40;69.00
49821;DHT22;36893;52.520;13.450;2024-03-02T07:13:31;21.40;69.00
49821;DHT22;36893;52.520;13.450;2024-03-02T07:23:31;21.40;68.80
49821;DHT22;36893;52.520;13.450;2024-03-02T07:33:33;21.40;68.90
49821;DHT22;36893;52.520;13.450;2024-03-02T07:43:34;21.40;68.90
49821;DHT22;36893;52.520;13.450;2024-03-02T07:53:35;21.30;68.90
49821;DHT22;36893;52.520;13.450;2024-03-02T08:03:37;21.40;68.90
49821;DHT22;36893;52.520;13.450;2024-03-02T08:13:38;21.30;68.90
49821;DHT22;36893;52.520;13.450;2024-03-02T08:23:40;21.30;68.90
49821;DHT22;36893;52.520;13.450;2024-03-02T08:33:42;21.30;68.80
49821;DHT22;36893;52.520;13.450;2024-03-02T08:43:43;21.30;68.80
49821;DHT22;36893;52.520;13.450;2024-03-02T08:53:43;21.30;68.90
49821;DHT22;36893;52.520;13.450;2024-03-02T09:03:44;21.30;68.90
49821;DHT22;36893;52.520;13.450;2024-03-02T09:13:44;21.30;68.90
49821;DHT22;36893;52.520;13.450;2024-03-02T09:23:45;21.30;68.90
49821;DHT22;36893;52.520;13.450;2024-03-02T09:33:47;21.40;68.90
49821;DHT22;36893;52.520;13.450;2024-03-02T09:43:48;21.40;68.80
49821;DHT22;36893;52.520;13.450;2024-03-02T09:53:49;21.50;69.00
49821;DHT22;36893;52.520;13.450;2024-03-02T10:03:50;21.50;68.80
49821;DHT22;36893;52.520;13.450;2024-03-02T10:13:51;21.50;68.70
49821;DHT22;36893;52.520;13.450;2024-03-02T10:23:52;21.60;68.60
49821;DHT22;36893;52.520;13.450;2024-03-02T10:33:55;21.60;68.60
49821;DHT22;36893;52.520;13.450;2024-03-02T10:43:58;21.70;68.50
49821;DHT22;36893;52.520;13.450;2024-03-02T10:54:01;21.70;68.40
49821;DHT22;36893;52.520;13.450;2024-03-02T11:04:02;21.80;68.50
49821;DHT22;36893;52.520;13.450;2024-03-02T11:14:05;21.80;68.40
49821;DHT22;36893;52.520;13.450;2024-03-02T11:24:28;21.80;68.40
49821;DHT22;36893;52.520;13.450;2024-03-02T11:34:36;21.80;68.40
49821;DHT22;36893;52.520;13.450;2024-03-02T11:44:49;21.80;68.30
49821;DHT22;36893;52.520;13.450;2024-03-02T11:54:50;21.90;68.30
49821;DHT22;36893;52.520;13.450;2024-03-02T12:04:52;22.00;68.30
49821;DHT22;36893;52.520;13.450;2024-03-02T12:14:53;22.00;68.30
49821;DHT22;36893;52.520;13.450;2024-03-02T12:24:55;22.00;68.30
49821;DHT22;36893;52.520;13.450;2024-03-02T12:34:56;22.00;68.20
49821;DHT22;36893;52.520;13.450;2024-03-02T12:44:56;22.00;68.20
49821;DHT22;36893;52.520;13.450;2024-03-02T12:54:58;22.10;68.20
49821;DHT22;36893;52.520;13.450;2024-03-02T13:04:59;22.10;68.20
49821;DHT22;36893;52.520;13.450;2024-03-02T13:15:00;22.10;68.10
49821;DHT22;36893;52.520;13.450;2024-03-02T13:25:00;22.20;68.20
49821;DHT22;36893;52.520;13.450;2024-03-02T13:35:04;22.20;68.20
49821;DHT22;36893;52.520;13.450;2024-03-02T13:45:05;22.20;68.20
49821;DHT22;36893;52.520;13.450;2024-03-02T13:55:07;22.20;68.20
49821;DHT22;36893;52.520;13.450;2024-03-02T14:05:07;22.20;68.20
49821;DHT22;36893;52.520;13.450;2024-03-02T14:15:12;22.20;68.10
49821;DHT22;36893;52.520;13.450;2024-03-02T14:25:12;22.30;68.20
49821;DHT22;36893;52.520;13.450;2024-03-02T14:35:13;22.30;68.20
49821;DHT22;36893;52.520;13.450;2024-03-02T14:45:14;22.30;68.10
49821;DHT22;36893;52.520;13.450;2024-03-02T14:55:14;22.30;68.20
49821;DHT22;36893;52.520;13.450;2024-03-02T15:05:15;22.30;68.20
49821;DHT22;36893;52.520;13.450;2024-03-02T15:15:16;22.30;68.10
49821;DHT22;36893;52.520;13.450;2024-03-02T15:25:17;22.20;68.10
49821;DHT22;36893;52.520;13.450;2024-03-02T15:35:17;22.20;68.20
49821;DHT22;36893;52.520;13.450;2024-03-02T15:45:18;22.20;68.20
49821;DHT22;36893;52.520;13.450;2024-03-02T15:55:19;22.10;68.10
49821;DHT22;36893;52.520;13.450;2024-03-02T16:05:19;22.10;68.10
49821;DHT22;36893;52.520;13.450;2024-03-02T16:15:21;22.10;68.20
49821;DHT22;36893;52.520;13.450;2024-03-02T16:25:21;22.10;68.30
49821;DHT22;36893;52.520;13.450;2024-03-02T16:35:25;22.10;68.30
49821;DHT22;36893;52.520;13.450;2024-03-02T16:45:25;22.10;68.40
49821;DHT22;36893;52.520;13.450;2024-03-02T16:55:26;22.00;68.40
49821;DHT22;36893;52.520;13.450;2024-03-02T17:05:26;22.00;68.40
49821;DHT22;36893;52.520;13.450;2024-03-02T17:15:27;22.00;68.40
49821;DHT22;36893;52.520;13.450;2024-03-02T17:25:28;21.90;68.30
49821;DHT22;36893;52.520;13.450;2024-03-02T17:35:28;21.90;68.40
49821;DHT22;36893;52.520;13.450;2024-03-02T17:45:31;21.90;68.40
49821;DHT22;36893;52.520;13.450;2024-03-02T17:55:32;21.90;68.40
49821;DHT22;36893;52.520;13.450;2024-03-02T18:05:33;21.90;68.50
49821;DHT22;36893;52.520;13.450;2024-03-02T18:15:34;21.90;68.50
49821;DHT22;36893;52.520;13.450;2024-03-02T18:25:34;21.80;68.50
49821;DHT22;36893;52.520;13.450;2024-03-02T18:35:35;21.80;68.50
49821;DHT22;36893;52.520;13.450;2024-03-02T18:45:36;21.80;68.50
49821;DHT22;36893;52.520;13.450;2024-03-02T18:55:37;21.80;68.50
49821;DHT22;36893;52.520;13.450;2024-03-02T19:05:38;21.80;68.50
49821;DHT22;36893;52.520;13.450;2024-03-02T19:15:39;21.80;68.50
49821;DHT22;36893;52.520;13.450;2024-03-02T19:25:40;21.80;68.60
49821;DHT22;36893;52.520;13.450;2024-03-02T19:35:41;21.80;68.60
49821;DHT22;36893;52.520;13.450;2024-03-02T19:45:41;21.80;68.60
49821;DHT22;36893;52.520;13.450;2024-03-02T19:55:42;21.80;68.60
49821;DHT22;36893;52.520;13.450;2024-03-02T20:05:44;21.80;68.60
49821;DHT22;36893;52.520;13.450;2024-03-02T20:15:45;21.70;68.50
49821;DHT22;36893;52.520;13.450;2024-03-02T20:25:46;21.80;68.60
49821;DHT22;36893;52.520;13.450;2024-03-02T20:35:46;21.80;68.60
49821;DHT22;36893;52.520;13.450;2024-03-02T20:45:47;21.70;69.40
49821;DHT22;36893;52.520;13.450;2024-03-02T20:55:48;21.70;68.60
49821;DHT22;36893;52.520;13.450;2024-03-02T21:05:49;21.80;68.60
49821;DHT22;36893;52.520;13.450;2024-03-02T21:15:50;21.70;68.60
49821;DHT22;36893;52.520;13.450;2024-03-02T21:25:50;21.80;68.70
49821;DHT22;36893;52.520;13.450;2024-03-02T21:35:51;21.70;68.60
49821;DHT22;36893;52.520;13.450;2024-03-02T21:45:53;21.70;68.60
49821;DHT22;36893;52.520;13.450;2024-03-02T21:55:53;21.70;68.60
49821;DHT22;36893;52.520;13.450;2024-03-02T22:05:54;21.70;68.60
49821;DHT22;36893;52.520;13.450;2024-03-02T22:15:55;21.70;68.70
49821;DHT22;36893;52.520;13.450;2024-03-02T22:25:58;21.70;68.60
49821;DHT22;36893;52.520;13.450;2024-03-02T22:36:00;21.70;68.70
49821;DHT22;36893;52.520;13.450;2024-03-02T22:46:01;21.70;68.70
49821;DHT22;36893;52.520;13.450;2024-03-02T22:56:02;21.70;68.70
49821;DHT22;36893;52.520;13.450;2024-03-02T23:06:05;21.70;68.70
49821;DHT22;36893;52.520;13.450;2024-03-02T23:16:06;21.70;68.70
49821;DHT22;36893;52.520;13.450;2024-03-02T23:26:07;21.70;68.70
49821;DHT22;36893;52.520;13.450;2024-03-02T23:36:07;21.70;68.70
49821;DHT22;36893;52.520;13.450;2024-03-02T23:46:09;21.70;68.70
49821;DHT22;36893;52.520;13.450;2024-03-02T23:56:12;21.70;68.70
